Terminal Aerodrome Forecast
Issued by NWS Huntsville, AL

Home | Current Version | Previous Version | Text Only | Print | Product List | Glossary On
Versions: 1 2 3 4 5 6 7 8 9 10 11 12 13 14 15 16 17 18 19 20 21 22
000
FTUS44 KHUN 020241 AAA
TAFHSV
TAF AMD
KHSV 020241Z 0203/0224 13005KT P6SM SCT250
     FM020800 16004KT 5SM BR BKN020
     FM021600 22007KT P6SM VCTS BKN020CB OVC050=

USA.gov is the U.S. government's official web portal to all federal, state and local government web resources and services.